الصفحة الرئيسية
METAR-TAF:

METAR-TAF

مطار :

مطار منيابولس-سنت بول الدولي

مينيابولس, مينيسوتا, الولايات المتحدة

دائرة عرض: 44-52-59N, خط طول: 093-13-44W, ارتفاع: 256 متر

مراقبة الطقس الحالي

تاريخ ووقت الإصدار 1ساعة و 4 دقيقة قبل الساعة 02:53UTC
ريح 9 عقدة من الشمال
درجة الحرارة 8°درجة مئوية
الرطوبة 46%
ضغط 1023 hPa
الرؤية: 16.1 كم
سماء صافية

METAR: KMSP 230253Z 35009KT 10SM CLR 08/M03 A3021 RMK AO2 SLP235 T00781028 53032

زمن: 22:57 (03:57 UTC)

توقعات

تاريخ ووقت الإصدار 58 دقيقة قبل الساعة 02:59UTC
التوقعات صالحة من23 الساعة 03 UTC إلى 24 الساعة 06 UTC
ريح 9 عقدة من الشمال/الشمال الغربي
الرؤية: 10 كم
سماء صافية
من 24 الساعة 0300 UTC
ريح 4 عقدة من الشمال/الشمال الشرقي
الرؤية: 10 كم
سماء صافية

TAF: KMSP 230259Z 2303/2406 33009KT P6SM SKC FM240300 03004KT P6SM SKC

أرصاد الطقس والتوقعات من أكثر من 4000 مطار (تقارير الطقس للمطار METAR والتنبؤ بالطقس بالمطارTAF).

المحطات المتاحة هي النقط الصفراء والحمراء على الخريطة.

حرك المؤشر فوق النقطة لمعرفة اسم المحطة.

ثم انقر لمعرفة أرصاد وتوقعات الطقس.

لتغيير الخارطة: اضغط على الأزرار الخضراء مع رمز الصليب الأسود للتكبير. على الزر الأخضر مع شرطة للتصغير، أو على الأسهم الخضراء للخرائط المجاورة.


METAR-TAF: